createdAt,value
2022-08-19T00:00:25.237Z,5.30
2022-08-19T00:01:26.258Z,4.63
2022-08-19T00:02:25.093Z,4.44
2022-08-19T00:03:25.015Z,3.56
2022-08-19T00:04:24.975Z,2.80
2022-08-19T00:05:24.871Z,4.24
2022-08-19T00:06:24.796Z,4.92
2022-08-19T00:07:24.726Z,4.14
2022-08-19T00:08:24.646Z,4.63
2022-08-19T00:09:24.570Z,4.53
2022-08-19T00:10:24.497Z,3.56
2022-08-19T00:11:26.028Z,3.37
2022-08-19T00:12:24.356Z,2.12
2022-08-19T00:13:24.278Z,1.25
2022-08-19T00:14:24.198Z,0.96
2022-08-19T00:15:24.128Z,1.64
2022-08-19T00:16:26.135Z,0.87
2022-08-19T00:17:23.982Z,1.54
2022-08-19T00:18:23.908Z,1.54
2022-08-19T00:19:23.836Z,1.73
2022-08-19T00:20:23.776Z,0.87
2022-08-19T00:21:23.691Z,0.00
2022-08-19T00:22:23.617Z,0.09
2022-08-19T00:23:23.536Z,0.00
2022-08-19T00:24:23.472Z,0.00
2022-08-19T00:25:30.260Z,0.00
2022-08-19T00:26:23.324Z,0.00
2022-08-19T00:27:26.221Z,0.00
2022-08-19T00:28:23.170Z,0.19
2022-08-19T00:29:23.098Z,0.00
2022-08-19T00:30:23.026Z,0.57
2022-08-19T00:31:22.953Z,0.19
2022-08-19T00:32:22.877Z,0.00
2022-08-19T00:33:22.802Z,0.00
2022-08-19T00:34:22.727Z,0.19
2022-08-19T00:35:22.652Z,0.00
2022-08-19T00:36:22.576Z,0.00
2022-08-19T00:37:22.506Z,0.00
2022-08-19T00:38:35.217Z,0.00
2022-08-19T00:39:22.359Z,0.00
2022-08-19T00:40:22.285Z,0.00
2022-08-19T00:41:22.225Z,0.00
2022-08-19T00:42:22.133Z,0.00
2022-08-19T00:43:22.063Z,0.00
2022-08-19T00:44:26.822Z,0.00
2022-08-19T00:45:21.915Z,0.00
2022-08-19T00:46:21.841Z,0.00
2022-08-19T00:47:21.766Z,0.00
2022-08-19T00:48:21.689Z,0.00
2022-08-19T00:49:21.619Z,0.00
2022-08-19T00:50:21.549Z,0.00
2022-08-19T00:51:21.469Z,0.00
2022-08-19T00:52:21.396Z,0.00
2022-08-19T00:53:21.323Z,0.00
2022-08-19T00:54:28.641Z,0.00
2022-08-19T00:55:21.178Z,0.00
2022-08-19T00:56:21.098Z,0.00
2022-08-19T00:57:21.031Z,0.00
2022-08-19T00:58:20.952Z,0.00
2022-08-19T00:59:58.860Z,0.00
2022-08-19T01:00:20.802Z,0.00
2022-08-19T01:01:20.773Z,0.00
2022-08-19T01:02:20.675Z,0.00
2022-08-19T01:03:20.580Z,0.00
2022-08-19T01:04:20.511Z,0.00
2022-08-19T01:05:20.433Z,0.00
2022-08-19T01:06:20.886Z,0.00
2022-08-19T01:07:20.287Z,0.00
2022-08-19T01:08:20.216Z,0.00
2022-08-19T01:09:20.139Z,0.19
2022-08-19T01:10:20.065Z,0.67
2022-08-19T01:11:19.990Z,1.73
2022-08-19T01:12:19.923Z,1.73
2022-08-19T01:13:19.842Z,2.12
2022-08-19T01:14:19.771Z,1.64
2022-08-19T01:15:19.693Z,1.64
2022-08-19T01:16:19.624Z,1.35
2022-08-19T01:17:19.543Z,0.96
2022-08-19T01:18:19.469Z,0.00
2022-08-19T01:19:19.401Z,0.09
2022-08-19T01:20:19.323Z,0.57
2022-08-19T01:21:19.262Z,0.29
2022-08-19T01:22:23.363Z,0.09
2022-08-19T01:23:19.104Z,0.38
2022-08-19T01:24:19.040Z,0.09
2022-08-19T01:25:18.957Z,0.48
2022-08-19T01:26:18.878Z,0.09
2022-08-19T01:27:18.807Z,0.29
2022-08-19T01:28:18.734Z,0.67
2022-08-19T01:29:18.662Z,0.57
2022-08-19T01:30:18.586Z,0.96
2022-08-19T01:31:27.329Z,1.15
2022-08-19T01:32:33.318Z,1.83
2022-08-19T01:33:18.360Z,1.06
2022-08-19T01:34:18.285Z,0.77
2022-08-19T01:35:18.218Z,0.00
2022-08-19T01:36:18.143Z,1.35
2022-08-19T01:37:27.022Z,1.44
2022-08-19T01:38:18.011Z,1.06
2022-08-19T01:39:17.914Z,1.25
2022-08-19T01:40:17.878Z,2.70
2022-08-19T01:41:17.772Z,3.56
2022-08-19T01:42:17.695Z,5.21
2022-08-19T01:43:17.626Z,5.01
2022-08-19T01:44:19.251Z,4.53
2022-08-19T01:45:17.473Z,4.63
2022-08-19T01:46:18.187Z,4.43
2022-08-19T01:47:17.324Z,5.01
2022-08-19T01:48:17.254Z,4.43
2022-08-19T01:49:17.179Z,4.82
2022-08-19T01:50:17.109Z,4.24
2022-08-19T01:51:17.029Z,4.43
2022-08-19T01:52:16.959Z,4.33
2022-08-19T01:53:16.881Z,6.46
2022-08-19T01:54:23.238Z,6.74
2022-08-19T01:55:16.737Z,7.13
2022-08-19T01:56:16.660Z,7.42
2022-08-19T01:57:16.584Z,7.81
2022-08-19T01:58:16.516Z,6.46
2022-08-19T01:59:16.436Z,4.72
2022-08-19T02:00:16.367Z,4.33
2022-08-19T02:01:16.348Z,4.91
2022-08-19T02:02:16.219Z,3.76
2022-08-19T02:03:16.147Z,3.66
2022-08-19T02:04:16.068Z,4.24
2022-08-19T02:05:15.995Z,4.91
2022-08-19T02:06:15.920Z,4.33
2022-08-19T02:07:15.850Z,6.07
2022-08-19T02:08:15.775Z,6.17
2022-08-19T02:09:15.703Z,5.98
2022-08-19T02:10:16.534Z,5.69
2022-08-19T02:11:15.555Z,5.21
2022-08-19T02:12:15.483Z,5.49
2022-08-19T02:13:15.407Z,5.30
2022-08-19T02:14:15.328Z,4.91
2022-08-19T02:15:15.259Z,5.88
2022-08-19T02:16:15.179Z,5.69
2022-08-19T02:17:15.105Z,5.88
2022-08-19T02:18:15.044Z,5.98
2022-08-19T02:19:14.960Z,6.07
2022-08-19T02:20:14.887Z,5.98
2022-08-19T02:21:14.811Z,5.21
2022-08-19T02:22:14.739Z,4.33
2022-08-19T02:23:16.186Z,6.65
2022-08-19T02:24:14.592Z,7.13
2022-08-19T02:25:14.516Z,6.07
2022-08-19T02:26:14.442Z,5.59
2022-08-19T02:27:14.370Z,4.33
2022-08-19T02:28:18.308Z,4.24
2022-08-19T02:29:14.222Z,3.95
2022-08-19T02:30:14.437Z,4.33
2022-08-19T02:31:14.073Z,4.91
2022-08-19T02:32:13.997Z,4.33
2022-08-19T02:33:13.923Z,4.33
2022-08-19T02:34:13.852Z,4.53
2022-08-19T02:35:13.778Z,4.53
2022-08-19T02:36:13.706Z,4.63
2022-08-19T02:37:13.626Z,4.63
2022-08-19T02:38:13.551Z,4.53
2022-08-19T02:39:13.478Z,3.76
2022-08-19T02:40:13.492Z,3.66
2022-08-19T02:41:13.340Z,3.28
2022-08-19T02:42:13.263Z,3.76
2022-08-19T02:43:13.193Z,3.47
2022-08-19T02:44:29.749Z,3.85
2022-08-19T02:45:13.036Z,4.43
2022-08-19T02:46:12.959Z,4.05
2022-08-19T02:47:12.893Z,3.56
2022-08-19T02:48:21.590Z,3.76
2022-08-19T02:49:12.738Z,4.63
2022-08-19T02:50:12.672Z,4.05
2022-08-19T02:51:12.589Z,4.33
2022-08-19T02:52:12.518Z,4.14
2022-08-19T02:53:12.447Z,3.66
2022-08-19T02:54:12.370Z,3.76
2022-08-19T02:55:12.293Z,3.66
2022-08-19T02:56:12.224Z,4.53
2022-08-19T02:57:19.340Z,4.14
2022-08-19T02:59:15.993Z,2.80
2022-08-19T03:00:15.901Z,2.98
2022-08-19T03:02:19.737Z,1.92
2022-08-19T03:03:19.659Z,2.31
2022-08-19T03:05:28.386Z,2.98
2022-08-19T03:06:23.419Z,2.89
2022-08-19T03:08:16.213Z,2.89
2022-08-19T03:09:16.123Z,3.28
2022-08-19T03:10:16.044Z,3.76
2022-08-19T03:11:15.970Z,2.60
2022-08-19T03:12:15.928Z,2.80
2022-08-19T03:13:15.819Z,2.70
2022-08-19T03:14:15.744Z,2.80
2022-08-19T03:15:15.671Z,2.50
2022-08-19T03:16:15.602Z,2.70
2022-08-19T03:17:15.523Z,2.89
2022-08-19T03:18:15.454Z,2.98
2022-08-19T03:19:15.376Z,2.98
2022-08-19T03:20:15.304Z,3.18
2022-08-19T03:21:15.230Z,2.60
2022-08-19T03:22:15.157Z,3.08
2022-08-19T03:23:15.086Z,2.80
2022-08-19T03:24:15.008Z,2.80
2022-08-19T03:25:14.938Z,2.60
2022-08-19T03:26:16.786Z,2.22
2022-08-19T03:27:14.782Z,2.02
2022-08-19T03:28:14.712Z,1.92
2022-08-19T03:29:14.634Z,2.02
2022-08-19T03:30:14.566Z,2.80
2022-08-19T03:31:44.720Z,2.89
2022-08-19T03:32:32.141Z,3.28
2022-08-19T03:33:18.289Z,2.80
2022-08-19T03:34:14.266Z,3.47
2022-08-19T03:35:14.192Z,0.77
2022-08-19T03:36:14.118Z,0.00
2022-08-19T03:37:14.043Z,0.00
2022-08-19T03:38:13.969Z,0.57
2022-08-19T03:39:13.894Z,1.25
2022-08-19T03:40:13.825Z,1.83
2022-08-19T03:41:13.751Z,2.98
2022-08-19T03:42:38.434Z,3.08
2022-08-19T03:43:13.599Z,3.66
2022-08-19T03:44:16.813Z,4.24
2022-08-19T03:45:13.456Z,4.43
2022-08-19T03:46:13.379Z,4.33
2022-08-19T03:47:13.313Z,3.66
2022-08-19T03:48:13.236Z,3.56
2022-08-19T03:49:14.208Z,0.00
2022-08-19T03:50:13.083Z,0.09
2022-08-19T03:51:13.013Z,0.29
2022-08-19T03:52:12.934Z,0.00
2022-08-19T03:53:12.868Z,0.00
2022-08-19T03:54:12.798Z,0.00
2022-08-19T03:55:12.717Z,0.00
2022-08-19T03:56:12.646Z,0.19
2022-08-19T03:57:12.593Z,0.67
2022-08-19T03:58:12.495Z,1.35
2022-08-19T03:59:12.422Z,2.22
2022-08-19T04:00:13.675Z,2.80
2022-08-19T04:01:12.315Z,2.80
2022-08-19T04:02:12.209Z,2.50
2022-08-19T04:03:12.127Z,2.60
2022-08-19T04:04:12.052Z,2.40
2022-08-19T04:05:11.973Z,2.80
2022-08-19T04:06:11.903Z,3.08
2022-08-19T04:07:11.826Z,3.76
2022-08-19T04:08:13.940Z,2.80
2022-08-19T04:09:11.676Z,2.60
2022-08-19T04:10:11.610Z,1.35
2022-08-19T04:11:11.534Z,2.50
2022-08-19T04:12:11.456Z,3.66
2022-08-19T04:13:11.386Z,3.66
2022-08-19T04:14:11.311Z,3.56
2022-08-19T04:15:11.236Z,4.24
2022-08-19T04:16:11.161Z,3.47
2022-08-19T04:17:11.086Z,3.76
2022-08-19T04:18:11.017Z,3.76
2022-08-19T04:19:10.946Z,3.66
2022-08-19T04:20:10.871Z,3.28
2022-08-19T04:21:10.793Z,3.18
2022-08-19T04:22:10.723Z,2.80
2022-08-19T04:23:10.647Z,3.56
2022-08-19T04:24:10.582Z,2.50
2022-08-19T04:25:10.498Z,2.22
2022-08-19T04:26:10.433Z,2.40
2022-08-19T04:27:10.357Z,1.83
2022-08-19T04:28:10.279Z,0.38
2022-08-19T04:29:12.493Z,0.67
2022-08-19T04:30:10.131Z,0.00
2022-08-19T04:31:10.060Z,0.00
2022-08-19T04:32:10.176Z,0.00
2022-08-19T04:33:09.926Z,0.00
2022-08-19T04:34:09.832Z,0.00
2022-08-19T04:35:16.969Z,0.00
2022-08-19T04:36:09.685Z,0.00
2022-08-19T04:37:09.609Z,0.00
2022-08-19T04:38:09.542Z,0.29
2022-08-19T04:39:09.467Z,1.25
2022-08-19T04:40:09.540Z,1.15
2022-08-19T04:41:09.315Z,1.44
2022-08-19T04:42:09.242Z,1.54
2022-08-19T04:43:09.168Z,1.64
2022-08-19T04:44:09.094Z,1.35
2022-08-19T04:45:09.272Z,0.00
2022-08-19T04:46:08.942Z,0.00
2022-08-19T04:47:10.990Z,0.00
2022-08-19T04:48:19.618Z,0.00
2022-08-19T04:49:13.219Z,0.00
2022-08-19T04:50:08.655Z,0.00
2022-08-19T04:51:08.583Z,0.00
2022-08-19T04:52:08.511Z,0.00
2022-08-19T04:53:08.436Z,0.00
2022-08-19T04:54:08.354Z,0.00
2022-08-19T04:55:08.289Z,0.00
2022-08-19T04:56:08.212Z,0.00
2022-08-19T04:57:08.409Z,0.00
2022-08-19T04:58:08.067Z,0.00
2022-08-19T04:59:08.069Z,0.00
2022-08-19T05:00:07.917Z,0.00
2022-08-19T05:01:07.869Z,0.00
2022-08-19T05:02:07.766Z,0.00
2022-08-19T05:03:07.907Z,0.00
2022-08-19T05:04:07.623Z,0.00
2022-08-19T05:05:07.727Z,1.35
2022-08-19T05:06:07.469Z,1.73
2022-08-19T05:07:07.398Z,1.15
2022-08-19T05:08:07.331Z,0.96
2022-08-19T05:09:07.247Z,0.48
2022-08-19T05:10:07.175Z,0.19
2022-08-19T05:11:07.116Z,0.09
2022-08-19T05:12:07.030Z,0.57
2022-08-19T05:13:06.962Z,1.45
2022-08-19T05:14:06.884Z,1.06
2022-08-19T05:15:06.805Z,1.06
2022-08-19T05:16:06.736Z,1.54
2022-08-19T05:17:26.620Z,0.00
2022-08-19T05:18:06.588Z,0.67
2022-08-19T05:19:06.509Z,0.67
2022-08-19T05:20:06.441Z,0.96
2022-08-19T05:21:06.370Z,1.25
2022-08-19T05:22:06.292Z,1.73
2022-08-19T05:23:10.827Z,2.50
2022-08-19T05:24:06.141Z,3.56
2022-08-19T05:25:12.674Z,3.66
2022-08-19T05:26:05.995Z,4.44
2022-08-19T05:27:05.923Z,6.07
2022-08-19T05:28:05.850Z,6.17
2022-08-19T05:29:05.775Z,6.07
2022-08-19T05:30:05.704Z,5.88
2022-08-19T05:31:05.634Z,5.79
2022-08-19T05:32:05.557Z,5.98
2022-08-19T05:33:05.480Z,7.71
2022-08-19T05:34:05.407Z,7.14
2022-08-19T05:35:05.333Z,7.04
2022-08-19T05:36:05.260Z,7.04
2022-08-19T05:37:05.189Z,8.48
2022-08-19T05:38:05.113Z,8.48
2022-08-19T05:39:05.041Z,8.00
2022-08-19T05:40:05.080Z,7.90
2022-08-19T05:41:04.887Z,8.58
2022-08-19T05:42:04.815Z,8.87
2022-08-19T05:43:04.743Z,8.58
2022-08-19T05:44:04.667Z,8.78
2022-08-19T05:45:04.604Z,8.00
2022-08-19T05:46:04.530Z,7.71
2022-08-19T05:47:04.450Z,7.52
2022-08-19T05:48:04.379Z,7.81
2022-08-19T05:49:04.300Z,7.90
2022-08-19T05:50:05.075Z,7.62
2022-08-19T05:51:04.155Z,7.14
2022-08-19T05:52:04.080Z,7.90
2022-08-19T05:53:04.004Z,8.78
2022-08-19T05:54:03.933Z,10.22
2022-08-19T05:55:03.857Z,10.61
2022-08-19T05:56:03.789Z,10.71
2022-08-19T05:57:03.708Z,10.89
2022-08-19T05:58:03.635Z,10.89
2022-08-19T05:59:03.569Z,10.51
2022-08-19T06:00:03.493Z,12.44
2022-08-19T06:01:03.420Z,11.86
2022-08-19T06:02:03.344Z,10.51
2022-08-19T06:03:11.891Z,10.41
2022-08-19T06:04:03.192Z,10.80
2022-08-19T06:05:03.124Z,9.93
2022-08-19T06:06:03.049Z,8.58
2022-08-19T06:07:11.953Z,8.00
2022-08-19T06:08:02.900Z,9.16
2022-08-19T06:09:02.842Z,10.61
2022-08-19T06:10:02.757Z,9.64
2022-08-19T06:11:02.677Z,10.42
2022-08-19T06:12:02.611Z,10.90
2022-08-19T06:13:02.532Z,10.71
2022-08-19T06:14:02.457Z,10.51
2022-08-19T06:15:02.480Z,11.96
2022-08-19T06:16:02.309Z,12.93
2022-08-19T06:17:06.642Z,11.19
2022-08-19T06:18:02.164Z,11.67
2022-08-19T06:19:02.092Z,13.50
2022-08-19T06:20:02.015Z,11.86
2022-08-19T06:21:01.940Z,13.31
2022-08-19T06:22:01.867Z,14.08
2022-08-19T06:23:01.794Z,12.83
2022-08-19T06:24:01.724Z,9.64
2022-08-19T06:25:01.649Z,10.03
2022-08-19T06:26:01.582Z,9.93
2022-08-19T06:27:01.958Z,10.51
2022-08-19T06:28:17.354Z,11.29
2022-08-19T06:29:01.357Z,11.86
2022-08-19T06:30:01.282Z,10.89
2022-08-19T06:31:01.204Z,9.26
2022-08-19T06:32:01.139Z,9.93
2022-08-19T06:33:01.061Z,9.74
2022-08-19T06:34:00.989Z,10.22
2022-08-19T06:35:00.909Z,8.78
2022-08-19T06:36:00.836Z,8.00
2022-08-19T06:37:00.763Z,10.41
2022-08-19T06:38:00.689Z,11.29
2022-08-19T06:39:00.616Z,11.29
2022-08-19T06:40:00.595Z,11.19
2022-08-19T06:41:00.472Z,10.71
2022-08-19T06:42:00.395Z,9.26
2022-08-19T06:43:00.816Z,8.48
2022-08-19T06:44:00.255Z,7.71
2022-08-19T06:45:00.215Z,9.16
2022-08-19T06:46:00.100Z,10.32
2022-08-19T06:47:00.030Z,10.89
2022-08-19T06:47:59.956Z,10.51
2022-08-19T06:48:59.879Z,9.74
2022-08-19T06:50:03.235Z,8.68
2022-08-19T06:50:59.733Z,7.90
2022-08-19T06:51:59.661Z,7.71
2022-08-19T06:53:04.593Z,6.56
2022-08-19T06:53:59.512Z,6.46
2022-08-19T06:54:59.699Z,7.23
2022-08-19T06:55:59.368Z,8.20
2022-08-19T06:56:59.293Z,7.52
2022-08-19T06:57:59.218Z,6.17
2022-08-19T06:58:59.142Z,6.07
2022-08-19T06:59:59.067Z,6.27
2022-08-19T07:00:58.995Z,5.49
2022-08-19T07:01:58.922Z,5.59
2022-08-19T07:03:01.870Z,5.69
2022-08-19T07:03:58.772Z,5.40
2022-08-19T07:04:58.702Z,5.01
2022-08-19T07:05:58.625Z,5.49
2022-08-19T07:06:58.557Z,5.40
2022-08-19T07:08:02.880Z,5.11
2022-08-19T07:08:58.404Z,5.01
2022-08-19T07:10:01.039Z,5.01
2022-08-19T07:10:58.258Z,5.21
2022-08-19T07:11:58.190Z,5.88
2022-08-19T07:12:58.111Z,4.92
2022-08-19T07:13:58.039Z,4.82
2022-08-19T07:14:57.966Z,5.49
2022-08-19T07:15:57.894Z,7.33
2022-08-19T07:16:57.818Z,7.33
2022-08-19T07:17:57.740Z,6.07
2022-08-19T07:18:57.671Z,4.53
2022-08-19T07:19:57.592Z,3.66
2022-08-19T07:20:57.523Z,3.66
2022-08-19T07:21:57.447Z,4.05
2022-08-19T07:22:57.374Z,4.82
2022-08-19T07:23:57.301Z,5.21
2022-08-19T07:24:57.224Z,4.53
2022-08-19T07:25:57.191Z,6.07
2022-08-19T07:26:57.086Z,6.17
2022-08-19T07:27:57.168Z,6.27
2022-08-19T07:28:56.927Z,5.30
2022-08-19T07:29:57.513Z,6.17
2022-08-19T07:30:56.782Z,5.40
2022-08-19T07:31:56.709Z,7.04
2022-08-19T07:32:56.640Z,8.10
2022-08-19T07:33:56.570Z,8.00
2022-08-19T07:34:57.010Z,7.81
2022-08-19T07:35:56.418Z,8.20
2022-08-19T07:36:56.341Z,7.90
2022-08-19T07:37:56.263Z,8.29
2022-08-19T07:38:56.192Z,7.71
2022-08-19T07:39:56.178Z,7.42
2022-08-19T07:40:56.044Z,7.62
2022-08-19T07:41:55.973Z,7.90
2022-08-19T07:42:55.903Z,8.87
2022-08-19T07:43:55.830Z,8.58
2022-08-19T07:44:55.752Z,8.29
2022-08-19T07:45:55.718Z,8.10
2022-08-19T07:46:55.606Z,8.58
2022-08-19T07:47:55.533Z,9.16
2022-08-19T07:48:55.463Z,9.45
2022-08-19T07:49:55.389Z,10.03
2022-08-19T07:50:55.310Z,10.89
2022-08-19T07:51:55.235Z,10.71
2022-08-19T07:52:55.160Z,11.57
2022-08-19T07:53:55.088Z,11.96
2022-08-19T07:54:55.013Z,11.48
2022-08-19T07:55:54.940Z,12.54
2022-08-19T07:56:54.865Z,13.60
2022-08-19T07:57:54.801Z,13.22
2022-08-19T07:59:54.649Z,10.90
2022-08-19T08:00:54.571Z,10.03
2022-08-19T08:01:54.530Z,9.84
2022-08-19T08:02:55.755Z,9.27
2022-08-19T08:03:54.352Z,8.69
2022-08-19T08:04:54.278Z,9.07
2022-08-19T08:05:54.212Z,9.65
2022-08-19T08:06:54.138Z,8.49
2022-08-19T08:07:54.057Z,8.39
2022-08-19T08:08:53.985Z,8.01
2022-08-19T08:10:54.676Z,10.32
2022-08-19T08:11:53.761Z,12.26
2022-08-19T08:13:08.751Z,11.58
2022-08-19T08:14:00.744Z,9.84
2022-08-19T08:14:55.938Z,9.27
2022-08-19T08:15:53.468Z,10.42
2022-08-19T08:16:53.393Z,11.20
2022-08-19T08:17:53.321Z,13.32
2022-08-19T08:18:53.436Z,14.76
2022-08-19T08:19:53.171Z,13.13
2022-08-19T08:20:53.106Z,11.97
2022-08-19T08:21:53.029Z,10.33
2022-08-19T08:22:53.137Z,12.36
2022-08-19T08:23:55.663Z,14.00
2022-08-19T08:24:52.808Z,13.61
2022-08-19T08:25:52.733Z,12.55
2022-08-19T08:26:57.695Z,15.25
2022-08-19T08:27:53.777Z,14.87
2022-08-19T08:28:52.515Z,19.50
2022-08-19T08:29:52.450Z,18.05
2022-08-19T08:30:52.374Z,18.55
2022-08-19T08:32:00.064Z,18.25
2022-08-19T08:32:52.221Z,17.19
2022-08-19T08:33:52.152Z,16.71
2022-08-19T08:34:52.468Z,16.81
2022-08-19T08:35:52.000Z,16.81
2022-08-19T08:36:51.927Z,17.68
2022-08-19T08:37:52.050Z,18.93
2022-08-19T08:39:51.754Z,21.35
2022-08-19T08:40:51.633Z,22.41
2022-08-19T08:41:51.570Z,21.07
2022-08-19T08:42:51.493Z,22.81
2022-08-19T08:43:51.421Z,23.49
2022-08-19T08:44:51.462Z,27.35
2022-08-19T08:45:53.624Z,29.77
2022-08-19T08:46:52.788Z,28.31
2022-08-19T08:47:51.147Z,29.28
2022-08-19T08:48:52.565Z,30.44
2022-08-19T08:49:51.356Z,27.93
2022-08-19T08:50:50.908Z,26.87
2022-08-19T08:51:59.988Z,33.25
2022-08-19T08:52:50.801Z,31.89
2022-08-19T08:53:50.697Z,31.23
2022-08-19T08:54:55.307Z,37.88
2022-08-19T08:55:50.544Z,34.13
2022-08-19T08:56:50.470Z,34.13
2022-08-19T08:57:50.397Z,34.42
2022-08-19T08:58:53.962Z,32.87
2022-08-19T08:59:50.253Z,31.71
2022-08-19T09:00:50.177Z,32.87
2022-08-19T09:01:50.147Z,35.78
2022-08-19T09:02:50.384Z,36.46
2022-08-19T09:03:49.959Z,35.97
2022-08-19T09:04:49.885Z,37.62
2022-08-19T09:05:49.818Z,39.18
2022-08-19T09:06:49.740Z,40.61
2022-08-19T09:07:49.672Z,40.63
2022-08-19T09:08:49.598Z,42.16
2022-08-19T09:09:49.526Z,38.50
2022-08-19T09:10:49.458Z,43.05
2022-08-19T09:11:49.384Z,41.60
2022-08-19T09:12:49.317Z,42.45
2022-08-19T09:13:49.237Z,42.83
2022-08-19T09:14:51.161Z,40.90
2022-08-19T09:15:49.089Z,41.00
2022-08-19T09:16:49.016Z,40.03
2022-08-19T09:17:50.127Z,41.67
2022-08-19T09:18:48.885Z,41.00
2022-08-19T09:19:48.829Z,39.45
2022-08-19T09:20:48.735Z,44.38
2022-08-19T09:21:48.654Z,42.25
2022-08-19T09:22:48.585Z,41.17
2022-08-19T09:23:48.512Z,42.91
2022-08-19T09:24:48.443Z,38.56
2022-08-19T09:25:48.387Z,37.30
2022-08-19T09:26:52.863Z,36.16
2022-08-19T09:27:48.223Z,38.76
2022-08-19T09:28:48.277Z,36.24
2022-08-19T09:29:48.077Z,37.50
2022-08-19T09:30:48.003Z,38.95
2022-08-19T09:31:47.930Z,38.08
2022-08-19T09:32:52.946Z,37.70
2022-08-19T09:33:47.789Z,36.34
2022-08-19T09:34:51.232Z,34.50
2022-08-19T09:35:53.205Z,33.54
2022-08-19T09:36:47.569Z,38.56
2022-08-19T09:37:47.587Z,37.70
2022-08-19T09:38:47.424Z,38.28
2022-08-19T09:39:47.384Z,37.50
2022-08-19T09:40:47.278Z,39.34
2022-08-19T09:41:47.365Z,40.50
2022-08-19T09:42:50.096Z,39.53
2022-08-19T09:43:47.879Z,36.92
2022-08-19T09:44:46.991Z,37.70
2022-08-19T09:45:46.918Z,40.88
2022-08-19T09:46:46.844Z,38.18
2022-08-19T09:47:47.226Z,36.92
2022-08-19T09:48:46.693Z,39.82
2022-08-19T09:49:46.624Z,38.76
2022-08-19T09:50:51.536Z,38.37
2022-08-19T09:51:49.071Z,39.24
2022-08-19T09:52:55.388Z,41.27
2022-08-19T09:53:46.336Z,39.34
2022-08-19T09:54:46.265Z,38.08
2022-08-19T09:55:46.192Z,40.98
2022-08-19T09:56:46.118Z,42.24
2022-08-19T09:57:46.045Z,43.30
2022-08-19T09:58:45.973Z,42.33
2022-08-19T09:59:45.894Z,40.98
2022-08-19T10:00:45.828Z,38.46
2022-08-19T10:01:45.777Z,37.79
2022-08-19T10:02:45.821Z,37.88
2022-08-19T10:03:45.604Z,35.28
2022-08-19T10:04:45.538Z,36.44
2022-08-19T10:05:45.463Z,38.08
2022-08-19T10:06:45.994Z,34.79
2022-08-19T10:07:45.315Z,37.88
2022-08-19T10:08:50.378Z,39.43
2022-08-19T10:09:45.175Z,39.04
2022-08-19T10:10:46.612Z,37.79
2022-08-19T10:11:52.567Z,39.53
2022-08-19T10:12:44.952Z,42.02
2022-08-19T10:13:44.879Z,42.21
2022-08-19T10:14:44.809Z,42.31
2022-08-19T10:15:47.127Z,40.96
2022-08-19T10:16:44.657Z,39.12
2022-08-19T10:17:48.081Z,38.93
2022-08-19T10:18:44.514Z,39.03
2022-08-19T10:19:55.142Z,42.21
2022-08-19T10:20:44.371Z,42.12
2022-08-19T10:21:44.298Z,42.41
2022-08-19T10:22:44.225Z,40.47
2022-08-19T10:23:44.156Z,39.04
2022-08-19T10:24:44.079Z,39.32
2022-08-19T10:25:44.007Z,39.24
2022-08-19T10:26:43.933Z,40.98
2022-08-19T10:27:46.554Z,38.76
2022-08-19T10:28:43.789Z,40.88
2022-08-19T10:29:46.399Z,40.78
2022-08-19T10:30:43.646Z,41.56
2022-08-19T10:32:00.126Z,44.36
2022-08-19T10:32:46.396Z,41.56
2022-08-19T10:33:53.654Z,39.53
2022-08-19T10:34:48.286Z,42.33
2022-08-19T10:35:57.008Z,43.78
2022-08-19T10:36:54.388Z,46.03
2022-08-19T10:37:56.930Z,41.77
2022-08-19T10:38:51.215Z,51.06
2022-08-19T10:39:43.567Z,47.28
2022-08-19T10:40:42.911Z,47.38
2022-08-19T10:41:42.841Z,48.44
2022-08-19T10:42:42.770Z,47.28
2022-08-19T10:43:42.698Z,46.51
2022-08-19T10:44:42.619Z,52.12
2022-08-19T10:45:52.552Z,50.57
2022-08-19T10:46:46.040Z,49.41
2022-08-19T10:47:42.403Z,47.86
2022-08-19T10:48:42.344Z,46.42
2022-08-19T10:49:42.258Z,48.74
2022-08-19T10:50:42.189Z,49.32
2022-08-19T10:51:44.610Z,47.09
2022-08-19T10:52:49.020Z,45.25
2022-08-19T10:53:41.969Z,41.00
2022-08-19T10:54:41.901Z,46.22
2022-08-19T10:55:41.824Z,48.64
2022-08-19T10:56:41.751Z,47.19
2022-08-19T10:58:01.407Z,46.12
2022-08-19T10:58:41.604Z,45.35
2022-08-19T10:59:41.531Z,44.48
2022-08-19T11:00:41.470Z,44.96
2022-08-19T11:01:41.384Z,52.41
2022-08-19T11:02:41.314Z,53.28
2022-08-19T11:03:41.246Z,49.80
2022-08-19T11:04:41.168Z,50.86
2022-08-19T11:05:41.102Z,52.51
2022-08-19T11:06:41.026Z,50.09
2022-08-19T11:07:40.949Z,50.57
2022-08-19T11:08:40.897Z,52.22
2022-08-19T11:09:40.811Z,50.57
2022-08-19T11:10:40.736Z,50.67
2022-08-19T11:11:40.659Z,51.83
2022-08-19T11:12:40.586Z,55.60
2022-08-19T11:13:40.518Z,53.19
2022-08-19T11:14:40.451Z,53.67
2022-08-19T11:15:40.376Z,53.77
2022-08-19T11:16:40.303Z,52.99
2022-08-19T11:17:40.239Z,49.70
2022-08-19T11:18:40.157Z,51.93
2022-08-19T11:19:40.081Z,52.51
2022-08-19T11:20:40.008Z,49.41
2022-08-19T11:21:39.938Z,48.64
2022-08-19T11:22:41.818Z,48.93
2022-08-19T11:23:39.793Z,47.09
2022-08-19T11:24:39.721Z,44.77
2022-08-19T11:25:39.650Z,46.90
2022-08-19T11:26:39.575Z,48.83
2022-08-19T11:27:39.502Z,46.61
2022-08-19T11:28:39.429Z,48.35
2022-08-19T11:29:39.356Z,53.28
2022-08-19T11:30:39.284Z,49.51
2022-08-19T11:31:39.211Z,52.89
2022-08-19T11:32:39.133Z,54.25
2022-08-19T11:33:39.063Z,51.93
2022-08-19T11:34:38.993Z,48.54
2022-08-19T11:35:38.916Z,51.54
2022-08-19T11:36:38.851Z,52.41
2022-08-19T11:37:38.773Z,53.38
2022-08-19T11:38:38.707Z,49.70
2022-08-19T11:39:38.717Z,50.48
2022-08-19T11:40:38.553Z,49.60
2022-08-19T11:41:38.484Z,47.77
2022-08-19T11:42:38.410Z,47.16
2022-08-19T11:43:38.338Z,49.19
2022-08-19T11:44:38.266Z,49.90
2022-08-19T11:45:38.192Z,52.00
2022-08-19T11:46:38.124Z,47.36
2022-08-19T11:47:38.057Z,42.82
2022-08-19T11:48:37.972Z,44.94
2022-08-19T11:49:37.900Z,45.33
2022-08-19T11:50:37.828Z,48.52
2022-08-19T11:51:37.755Z,46.10
2022-08-19T11:52:37.684Z,46.00
2022-08-19T11:53:37.621Z,44.46
2022-08-19T11:54:37.537Z,42.24
2022-08-19T11:55:37.463Z,43.78
2022-08-19T11:56:37.393Z,38.18
2022-08-19T11:57:37.317Z,36.34
2022-08-19T11:58:37.246Z,35.37
2022-08-19T11:59:37.175Z,41.54
2022-08-19T12:00:37.101Z,39.22
2022-08-19T12:01:37.035Z,37.48
2022-08-19T12:02:36.957Z,37.48
2022-08-19T12:03:36.995Z,34.48
2022-08-19T12:04:36.804Z,34.78
2022-08-19T12:05:36.734Z,31.98
2022-08-19T12:06:36.662Z,30.72
2022-08-19T12:07:36.591Z,28.20
2022-08-19T12:08:36.519Z,29.08
2022-08-19T12:09:36.442Z,28.69
2022-08-19T12:10:36.378Z,26.95
2022-08-19T12:11:36.302Z,26.28
2022-08-19T12:12:36.232Z,29.17
2022-08-19T12:13:36.153Z,28.59
2022-08-19T12:14:36.082Z,27.62
2022-08-19T12:15:37.221Z,27.62
2022-08-19T12:16:37.794Z,27.24
2022-08-19T12:17:35.863Z,28.50
2022-08-19T12:18:35.788Z,26.86
2022-08-19T12:19:35.715Z,20.00
2022-08-19T12:20:35.639Z,19.02
2022-08-19T12:21:35.567Z,26.86
2022-08-19T12:22:35.493Z,26.26
2022-08-19T12:23:35.422Z,24.91
2022-08-19T12:24:35.350Z,25.12
2022-08-19T12:25:35.275Z,23.38
2022-08-19T12:26:52.420Z,19.90
2022-08-19T12:27:40.829Z,20.28
2022-08-19T12:28:35.057Z,19.21
2022-08-19T12:29:34.987Z,18.84
2022-08-19T12:30:34.911Z,18.82
2022-08-19T12:31:34.839Z,18.25
2022-08-19T12:32:34.768Z,14.97
2022-08-19T12:33:34.692Z,18.84
2022-08-19T12:34:34.623Z,20.47
2022-08-19T12:35:34.551Z,18.44
2022-08-19T12:36:34.471Z,17.57
2022-08-19T12:37:34.396Z,17.09
2022-08-19T12:38:34.329Z,17.58
2022-08-19T12:39:34.303Z,17.10
2022-08-19T12:40:34.180Z,19.70
2022-08-19T12:41:34.109Z,22.41
2022-08-19T12:42:34.034Z,23.57
2022-08-19T12:43:33.963Z,21.15
2022-08-19T12:44:33.899Z,22.12
2022-08-19T12:45:36.375Z,21.44
2022-08-19T12:46:33.987Z,19.51
2022-08-19T12:47:33.668Z,20.67
2022-08-19T12:48:35.015Z,19.32
2022-08-19T12:49:55.188Z,18.16
2022-08-19T12:50:33.450Z,19.70
2022-08-19T12:51:33.376Z,20.00
2022-08-19T12:52:33.303Z,20.09
2022-08-19T12:53:33.231Z,19.61
2022-08-19T12:54:33.158Z,20.28
2022-08-19T12:55:33.089Z,18.55
2022-08-19T12:56:33.011Z,15.17
2022-08-19T12:57:33.552Z,16.81
2022-08-19T12:58:32.867Z,16.71
2022-08-19T12:59:32.792Z,19.12
2022-08-19T13:00:32.718Z,18.36
2022-08-19T13:01:32.646Z,20.01
2022-08-19T13:02:32.575Z,21.07
2022-08-19T13:03:32.502Z,21.07
2022-08-19T13:04:32.430Z,22.33
2022-08-19T13:05:32.358Z,21.94
2022-08-19T13:06:32.284Z,17.97
2022-08-19T13:07:32.218Z,16.82
2022-08-19T13:08:32.142Z,17.49
2022-08-19T13:09:32.068Z,19.91
2022-08-19T13:10:31.994Z,22.23
2022-08-19T13:11:31.919Z,21.45
2022-08-19T13:12:31.847Z,19.81